createdAt,value
2017-06-26T00:16:37.182Z,7.03
2017-06-26T00:37:43.765Z,9.10
2017-06-26T00:58:50.353Z,9.70
2017-06-26T01:19:57.487Z,9.53
2017-06-26T01:41:04.049Z,7.60
2017-06-26T02:02:10.531Z,8.20
2017-06-26T02:23:17.197Z,6.20
2017-06-26T02:44:23.743Z,8.00
2017-06-26T03:05:29.089Z,8.10
2017-06-26T03:26:35.200Z,12.20
2017-06-26T03:47:41.922Z,7.77
2017-06-26T04:08:48.752Z,6.60
2017-06-26T04:29:55.531Z,9.30
2017-06-26T04:51:01.564Z,7.20
2017-06-26T05:15:13.903Z,11.33
2017-06-26T05:36:21.322Z,11.70
2017-06-26T05:57:27.952Z,10.40
2017-06-26T06:18:33.291Z,9.80
2017-06-26T06:39:39.916Z,9.83
2017-06-26T07:00:46.228Z,9.13
2017-06-26T07:21:52.954Z,8.30
2017-06-26T07:42:58.425Z,6.27
2017-06-26T08:04:04.611Z,5.70
2017-06-26T08:25:10.575Z,5.10
2017-06-26T08:46:16.823Z,4.50
2017-06-26T09:07:22.195Z,5.33
2017-06-26T09:28:28.039Z,4.83
2017-06-26T09:49:34.803Z,5.00
2017-06-26T10:10:41.679Z,4.03
2017-06-26T10:31:47.854Z,4.37
2017-06-26T10:52:54.706Z,4.83
2017-06-26T11:14:01.583Z,4.50
2017-06-26T11:35:08.308Z,4.20
2017-06-26T11:56:15.004Z,3.50
2017-06-26T12:17:20.800Z,3.00
2017-06-26T12:38:27.786Z,2.90
2017-06-26T12:59:34.465Z,3.60
2017-06-26T13:20:40.862Z,3.23
2017-06-26T13:41:46.539Z,4.20
2017-06-26T14:02:52.213Z,4.43
2017-06-26T14:23:58.280Z,4.50
2017-06-26T14:45:04.763Z,4.30
2017-06-26T15:06:11.386Z,4.00
2017-06-26T15:27:18.127Z,3.70
2017-06-26T15:48:23.482Z,4.20
2017-06-26T16:09:29.747Z,3.23
2017-06-26T16:30:35.807Z,2.77
2017-06-26T16:51:42.544Z,2.57
2017-06-26T17:19:01.951Z,3.10
2017-06-26T17:40:08.148Z,4.70
2017-06-26T18:01:14.708Z,4.93
2017-06-26T18:22:21.124Z,5.00
2017-06-26T18:43:27.057Z,7.00
2017-06-26T19:04:33.533Z,5.40
2017-06-26T19:25:40.071Z,6.67
2017-06-26T19:46:45.891Z,5.67
2017-06-26T20:07:51.883Z,5.87
2017-06-26T20:29:11.940Z,5.60
2017-06-26T20:50:18.053Z,6.67
2017-06-26T21:11:24.711Z,6.57
2017-06-26T21:32:31.609Z,7.40
2017-06-26T21:53:37.735Z,7.00
2017-06-26T22:14:43.483Z,8.40
2017-06-26T22:35:49.660Z,7.80
2017-06-26T22:56:56.138Z,8.03
2017-06-26T23:18:02.991Z,8.00
2017-06-26T23:39:09.941Z,8.30
